KIND/IND METAR and TAF weather

Enter ICAO airport designator
Station Type Date Time Source
KIND METAR 2021/07/28 03:54 UTC NOAA

KIND 280354Z 00000KT 10SM FEW250 25/20 A3006 RMK AO2 SLP172 T02500200


Station Type Date Time Source
KIND Decoded METAR 2021/07/28 03:54 UTC NOAA

INDIANAPOLIS INTERNATIONAL AIRPORT , IN, United States (KIND) 39-43N 86-17W 242M
Jul 27, 2021 - 11:54 PM EDT / 2021.07.28 0354 UTC
Wind: Calm:0
Visibility: 10 mile(s):0
Sky conditions: mostly clear
Temperature: 77.0 F (25.0 C)
Dew Point: 68.0 F (20.0 C)
Relative Humidity: 73%
Pressure (altimeter): 30.06 in. Hg (1017 hPa)
ob: KIND 280354Z 00000KT 10SM FEW250 25/20 A3006 RMK AO2 SLP172 T02500200
cycle: 4

Station Type Date Time Source
KIND TAF 2021/07/28 02:28 UTC NOAA

TAF
AMD KIND 280226Z 2802/2906 30004KT P6SM FEW200
FM281600 28007KT P6SM FEW040 FEW250
FM290000 28005KT P6SM SCT250

Example: see airport list